createdAt,value
2018-11-13T00:00:39.703Z,6.80
2018-11-13T00:02:14.536Z,6.80
2018-11-13T00:03:49.507Z,6.70
2018-11-13T00:05:24.832Z,6.70
2018-11-13T00:06:59.715Z,6.70
2018-11-13T00:08:53.406Z,6.80
2018-11-13T00:10:28.318Z,6.80
2018-11-13T00:12:03.265Z,6.80
2018-11-13T00:13:38.161Z,6.80
2018-11-13T00:15:13.647Z,6.80
2018-11-13T00:16:48.539Z,6.80
2018-11-13T00:18:23.411Z,6.80
2018-11-13T00:19:58.369Z,6.70
2018-11-13T00:21:33.328Z,6.70
2018-11-13T00:23:08.216Z,6.80
2018-11-13T00:24:43.112Z,6.80
2018-11-13T00:26:18.093Z,6.70
2018-11-13T00:27:52.935Z,6.70
2018-11-13T00:29:27.854Z,6.70
2018-11-13T00:31:02.704Z,6.70
2018-11-13T00:32:37.670Z,6.70
2018-11-13T00:34:12.655Z,6.60
2018-11-13T00:35:47.539Z,6.60
2018-11-13T00:37:22.626Z,6.50
2018-11-13T00:38:57.596Z,6.50
2018-11-13T00:40:32.524Z,6.60
2018-11-13T00:42:07.375Z,6.60
2018-11-13T00:43:42.287Z,6.60
2018-11-13T00:45:17.250Z,6.60
2018-11-13T00:46:52.087Z,6.60
2018-11-13T00:48:27.204Z,6.60
2018-11-13T00:50:01.960Z,6.60
2018-11-13T00:51:37.853Z,6.60
2018-11-13T00:53:12.772Z,6.60
2018-11-13T00:54:47.649Z,6.60
2018-11-13T00:56:22.707Z,6.60
2018-11-13T00:57:57.627Z,6.60
2018-11-13T00:59:32.675Z,6.60
2018-11-13T01:01:07.536Z,6.60
2018-11-13T01:02:42.699Z,6.50
2018-11-13T01:04:17.550Z,6.50
2018-11-13T01:05:52.928Z,6.50
2018-11-13T01:07:27.398Z,6.40
2018-11-13T01:09:02.471Z,6.40
2018-11-13T01:10:37.469Z,6.40
2018-11-13T01:12:12.569Z,6.40
2018-11-13T01:13:47.491Z,6.30
2018-11-13T01:15:22.355Z,6.30
2018-11-13T01:16:58.010Z,6.30
2018-11-13T01:18:32.554Z,6.20
2018-11-13T01:20:07.674Z,6.30
2018-11-13T01:21:43.297Z,6.20
2018-11-13T01:23:18.187Z,6.20
2018-11-13T01:24:53.093Z,6.20
2018-11-13T01:26:27.955Z,6.20
2018-11-13T01:28:02.875Z,6.10
2018-11-13T01:29:37.733Z,6.20
2018-11-13T01:31:12.662Z,6.10
2018-11-13T01:32:47.824Z,6.10
2018-11-13T01:34:23.138Z,6.10
2018-11-13T01:35:58.027Z,6.10
2018-11-13T01:37:33.099Z,6.10
2018-11-13T01:39:09.462Z,6.10
2018-11-13T01:40:44.336Z,6.10
2018-11-13T01:42:19.312Z,6.10
2018-11-13T01:43:54.249Z,6.10
2018-11-13T01:45:29.157Z,6.10
2018-11-13T01:47:04.014Z,6.00
2018-11-13T01:48:38.893Z,6.00
2018-11-13T01:50:14.234Z,6.00
2018-11-13T01:51:49.133Z,6.00
2018-11-13T01:53:24.007Z,6.00
2018-11-13T01:54:58.909Z,6.00
2018-11-13T01:56:33.833Z,6.10
2018-11-13T01:58:08.841Z,6.10
2018-11-13T01:59:43.733Z,6.10
2018-11-13T02:01:18.615Z,6.10
2018-11-13T02:02:54.880Z,6.10
2018-11-13T02:04:29.891Z,6.10
2018-11-13T02:06:05.387Z,6.10
2018-11-13T02:07:40.429Z,6.10
2018-11-13T02:09:15.501Z,6.00
2018-11-13T02:10:50.442Z,6.00
2018-11-13T02:12:25.525Z,6.00
2018-11-13T02:14:00.382Z,6.00
2018-11-13T02:15:35.266Z,6.00
2018-11-13T02:17:10.145Z,6.00
2018-11-13T02:18:45.091Z,5.90
2018-11-13T02:20:21.309Z,5.90
2018-11-13T02:21:56.207Z,6.00
2018-11-13T02:23:31.268Z,6.00
2018-11-13T02:25:07.747Z,6.00
2018-11-13T02:26:42.652Z,6.10
2018-11-13T02:28:17.551Z,6.10
2018-11-13T02:29:52.525Z,6.10
2018-11-13T02:31:27.457Z,6.10
2018-11-13T02:33:02.661Z,6.10
2018-11-13T02:34:37.688Z,6.10
2018-11-13T02:36:12.710Z,6.10
2018-11-13T02:37:47.571Z,6.10
2018-11-13T02:39:22.440Z,6.10
2018-11-13T02:40:57.407Z,6.10
2018-11-13T02:42:32.591Z,6.10
2018-11-13T02:44:08.103Z,6.10
2018-11-13T02:45:43.001Z,6.10
2018-11-13T02:47:17.874Z,6.20
2018-11-13T02:48:52.740Z,6.20
2018-11-13T02:50:27.668Z,6.20
2018-11-13T02:52:02.669Z,6.20
2018-11-13T02:53:37.520Z,6.20
2018-11-13T02:55:12.811Z,6.20
2018-11-13T02:56:47.677Z,6.20
2018-11-13T02:58:22.590Z,6.20
2018-11-13T02:59:57.467Z,6.20
2018-11-13T03:01:32.387Z,6.20
2018-11-13T03:03:07.258Z,6.10
2018-11-13T03:04:42.138Z,6.10
2018-11-13T03:06:17.116Z,6.00
2018-11-13T03:07:52.082Z,6.00
2018-11-13T03:09:26.930Z,6.00
2018-11-13T03:11:01.795Z,6.10
2018-11-13T03:12:36.654Z,6.10
2018-11-13T03:14:11.575Z,6.10
2018-11-13T03:15:46.488Z,6.10
2018-11-13T03:17:21.322Z,6.10
2018-11-13T03:18:56.191Z,6.10
2018-11-13T03:20:31.114Z,6.10
2018-11-13T03:22:06.014Z,6.10
2018-11-13T03:23:40.954Z,6.10
2018-11-13T03:25:17.043Z,6.10
2018-11-13T03:26:51.943Z,6.10
2018-11-13T03:28:26.791Z,6.10
2018-11-13T03:30:01.739Z,6.10
2018-11-13T03:31:36.688Z,6.00
2018-11-13T03:33:11.448Z,6.00
2018-11-13T03:34:46.335Z,5.90
2018-11-13T03:36:21.231Z,5.90
2018-11-13T03:37:56.137Z,5.80
2018-11-13T03:39:31.019Z,5.80
2018-11-13T03:41:06.111Z,5.70
2018-11-13T03:42:41.276Z,5.70
2018-11-13T03:44:17.770Z,5.60
2018-11-13T03:45:52.639Z,5.60
2018-11-13T03:47:27.483Z,5.50
2018-11-13T03:49:02.387Z,5.50
2018-11-13T03:50:37.389Z,5.40
2018-11-13T03:52:12.287Z,5.40
2018-11-13T03:53:47.172Z,5.40
2018-11-13T03:55:22.080Z,5.40
2018-11-13T03:56:57.138Z,5.40
2018-11-13T03:58:32.214Z,5.40
2018-11-13T04:00:09.159Z,5.30
2018-11-13T04:01:44.065Z,5.30
2018-11-13T04:03:18.987Z,5.30
2018-11-13T04:04:53.872Z,5.30
2018-11-13T04:06:28.754Z,5.30
2018-11-13T04:08:03.636Z,5.30
2018-11-13T04:09:38.536Z,5.20
2018-11-13T04:11:13.414Z,5.30
2018-11-13T04:12:48.387Z,5.30
2018-11-13T04:14:23.313Z,5.30
2018-11-13T04:15:58.191Z,5.30
2018-11-13T04:17:33.262Z,5.40
2018-11-13T04:19:08.780Z,5.40
2018-11-13T04:20:43.768Z,5.50
2018-11-13T04:22:18.691Z,5.50
2018-11-13T04:23:53.586Z,5.50
2018-11-13T04:25:28.466Z,5.50
2018-11-13T04:27:03.501Z,5.60
2018-11-13T04:28:38.364Z,5.60
2018-11-13T04:30:14.775Z,5.60
2018-11-13T04:31:49.708Z,5.60
2018-11-13T04:33:24.600Z,5.50
2018-11-13T04:34:59.622Z,5.50
2018-11-13T04:36:34.562Z,5.50
2018-11-13T04:38:09.423Z,5.50
2018-11-13T04:39:44.331Z,5.50
2018-11-13T04:41:19.266Z,5.40
2018-11-13T04:42:54.273Z,5.40
2018-11-13T04:44:29.199Z,5.40
2018-11-13T04:46:04.081Z,5.40
2018-11-13T04:47:39.116Z,5.40
2018-11-13T04:49:13.978Z,5.40
2018-11-13T04:50:48.820Z,5.50
2018-11-13T04:52:23.699Z,5.50
2018-11-13T04:53:58.783Z,5.50
2018-11-13T04:55:33.703Z,5.50
2018-11-13T04:57:08.581Z,5.50
2018-11-13T04:58:43.448Z,5.50
2018-11-13T05:00:24.783Z,5.50
2018-11-13T05:01:59.855Z,5.50
2018-11-13T05:03:34.905Z,5.60
2018-11-13T05:05:11.007Z,5.60
2018-11-13T05:06:45.882Z,5.60
2018-11-13T05:08:20.955Z,5.60
2018-11-13T05:09:55.847Z,5.60
2018-11-13T05:11:30.783Z,5.60
2018-11-13T05:13:05.868Z,5.60
2018-11-13T05:14:40.786Z,5.60
2018-11-13T05:16:15.759Z,5.60
2018-11-13T05:17:50.652Z,5.60
2018-11-13T05:19:25.558Z,5.60
2018-11-13T05:21:00.546Z,5.70
2018-11-13T05:22:35.618Z,5.70
2018-11-13T05:24:10.489Z,5.70
2018-11-13T05:25:45.381Z,5.70
2018-11-13T05:27:20.287Z,5.80
2018-11-13T05:28:55.303Z,5.80
2018-11-13T05:30:30.212Z,5.80
2018-11-13T05:32:05.152Z,5.80
2018-11-13T05:33:40.030Z,5.90
2018-11-13T05:35:16.038Z,5.90
2018-11-13T05:36:50.923Z,5.80
2018-11-13T05:38:25.809Z,5.80
2018-11-13T05:40:00.707Z,5.80
2018-11-13T05:41:35.665Z,5.80
2018-11-13T05:43:10.597Z,5.80
2018-11-13T05:44:45.446Z,5.80
2018-11-13T05:46:20.369Z,5.80
2018-11-13T05:47:55.628Z,5.80
2018-11-13T05:49:30.514Z,5.80
2018-11-13T05:51:06.106Z,5.70
2018-11-13T05:52:41.696Z,5.70
2018-11-13T05:54:16.611Z,5.70
2018-11-13T05:55:51.703Z,5.70
2018-11-13T05:57:26.669Z,5.70
2018-11-13T05:59:01.543Z,5.60
2018-11-13T06:00:36.429Z,5.60
2018-11-13T06:02:11.328Z,5.60
2018-11-13T06:03:46.367Z,5.50
2018-11-13T06:05:21.303Z,5.50
2018-11-13T06:06:56.323Z,5.50
2018-11-13T06:08:31.193Z,5.50
2018-11-13T06:10:07.166Z,5.50
2018-11-13T06:11:42.030Z,5.50
2018-11-13T06:13:16.934Z,5.50
2018-11-13T06:14:52.093Z,5.50
2018-11-13T06:16:27.101Z,5.50
2018-11-13T06:18:02.056Z,5.40
2018-11-13T06:19:36.972Z,5.40
2018-11-13T06:21:12.054Z,5.50
2018-11-13T06:22:46.980Z,5.40
2018-11-13T06:24:21.962Z,5.40
2018-11-13T06:25:56.986Z,5.40
2018-11-13T06:27:31.919Z,5.40
2018-11-13T06:29:06.977Z,5.40
2018-11-13T06:30:41.854Z,5.40
2018-11-13T06:32:16.849Z,5.40
2018-11-13T06:33:51.731Z,5.50
2018-11-13T06:35:26.588Z,5.50
2018-11-13T06:37:01.800Z,5.50
2018-11-13T06:38:36.801Z,5.50
2018-11-13T06:40:11.880Z,5.50
2018-11-13T06:41:46.798Z,5.50
2018-11-13T06:43:21.713Z,5.60
2018-11-13T06:44:56.628Z,5.60
2018-11-13T06:46:31.537Z,5.60
2018-11-13T06:48:06.455Z,5.60
2018-11-13T06:49:41.365Z,5.70
2018-11-13T06:51:16.296Z,5.80
2018-11-13T06:52:51.524Z,5.90
2018-11-13T06:54:37.742Z,5.90
2018-11-13T06:56:12.625Z,6.00
2018-11-13T06:57:47.560Z,6.10
2018-11-13T06:59:22.480Z,6.10
2018-11-13T07:00:57.482Z,6.20
2018-11-13T07:02:32.605Z,6.20
2018-11-13T07:04:07.556Z,6.30
2018-11-13T07:05:42.437Z,6.40
2018-11-13T07:07:17.322Z,6.40
2018-11-13T07:08:52.334Z,6.50
2018-11-13T07:10:28.312Z,6.60
2018-11-13T07:12:03.154Z,6.60
2018-11-13T07:13:38.248Z,6.70
2018-11-13T07:15:14.697Z,6.70
2018-11-13T07:16:49.621Z,6.80
2018-11-13T07:18:24.653Z,6.90
2018-11-13T07:19:59.535Z,6.90
2018-11-13T07:21:34.537Z,7.00
2018-11-13T07:23:09.452Z,7.10
2018-11-13T07:24:44.384Z,7.20
2018-11-13T07:26:19.251Z,7.30
2018-11-13T07:27:54.583Z,7.30
2018-11-13T07:29:29.514Z,7.40
2018-11-13T07:31:04.423Z,7.50
2018-11-13T07:32:39.847Z,7.60
2018-11-13T07:34:14.937Z,7.70
2018-11-13T07:35:49.854Z,7.70
2018-11-13T07:37:24.798Z,7.80
2018-11-13T07:38:59.758Z,7.90
2018-11-13T07:40:34.654Z,8.00
2018-11-13T07:42:09.547Z,8.10
2018-11-13T07:43:44.527Z,8.20
2018-11-13T07:45:19.682Z,8.30
2018-11-13T07:46:54.699Z,8.30
2018-11-13T07:48:29.601Z,8.40
2018-11-13T07:50:05.281Z,8.50
2018-11-13T07:51:40.214Z,8.50
2018-11-13T07:53:15.258Z,8.60
2018-11-13T07:54:50.156Z,8.70
2018-11-13T07:56:25.072Z,8.70
2018-11-13T07:57:59.951Z,8.80
2018-11-13T07:59:35.171Z,8.90
2018-11-13T08:01:10.208Z,8.90
2018-11-13T08:02:46.513Z,9.00
2018-11-13T08:04:22.017Z,9.10
2018-11-13T08:05:56.900Z,9.20
2018-11-13T08:07:31.915Z,9.30
2018-11-13T08:09:07.989Z,9.40
2018-11-13T08:10:42.871Z,9.50
2018-11-13T08:12:17.809Z,9.60
2018-11-13T08:13:52.709Z,9.80
2018-11-13T08:15:27.599Z,9.90
2018-11-13T08:17:02.489Z,10.00
2018-11-13T08:18:37.412Z,10.10
2018-11-13T08:20:13.704Z,10.10
2018-11-13T08:21:48.727Z,10.20
2018-11-13T08:23:24.698Z,10.20
2018-11-13T08:24:59.669Z,10.30
2018-11-13T08:26:34.564Z,10.40
2018-11-13T08:28:09.470Z,10.50
2018-11-13T08:29:44.323Z,10.50
2018-11-13T08:31:19.222Z,10.60
2018-11-13T08:32:54.129Z,10.80
2018-11-13T08:34:29.055Z,10.90
2018-11-13T08:36:03.955Z,11.10
2018-11-13T08:37:38.956Z,11.20
2018-11-13T08:39:13.928Z,11.40
2018-11-13T08:40:48.838Z,11.60
2018-11-13T08:42:23.696Z,11.70
2018-11-13T08:43:58.607Z,11.90
2018-11-13T08:45:33.481Z,12.00
2018-11-13T08:47:08.398Z,12.10
2018-11-13T08:48:43.259Z,12.20
2018-11-13T08:50:18.213Z,12.20
2018-11-13T08:51:53.086Z,12.30
2018-11-13T08:53:27.970Z,12.40
2018-11-13T08:55:03.062Z,12.70
2018-11-13T08:56:37.982Z,12.90
2018-11-13T08:58:12.880Z,13.20
2018-11-13T08:59:48.191Z,13.50
2018-11-13T09:01:23.091Z,13.70
2018-11-13T09:02:58.027Z,13.80
2018-11-13T09:04:33.017Z,14.00
2018-11-13T09:06:07.919Z,14.10
2018-11-13T09:07:42.964Z,14.20
2018-11-13T09:09:17.924Z,14.30
2018-11-13T09:10:52.953Z,14.40
2018-11-13T09:12:27.872Z,14.40
2018-11-13T09:14:02.814Z,14.50
2018-11-13T09:15:37.691Z,14.60
2018-11-13T09:17:12.699Z,14.80
2018-11-13T09:18:47.601Z,14.90
2018-11-13T09:20:22.481Z,15.10
2018-11-13T09:21:57.406Z,15.20
2018-11-13T09:23:32.352Z,15.10
2018-11-13T09:25:09.040Z,15.30
2018-11-13T09:26:43.934Z,15.30
2018-11-13T09:28:18.827Z,15.40
2018-11-13T09:29:53.811Z,15.40
2018-11-13T09:31:28.744Z,15.50
2018-11-13T09:33:03.604Z,15.50
2018-11-13T09:34:38.553Z,15.50
2018-11-13T09:36:13.445Z,15.50
2018-11-13T09:37:48.411Z,15.60
2018-11-13T09:39:23.324Z,15.60
2018-11-13T09:40:58.231Z,15.60
2018-11-13T09:42:33.141Z,15.60
2018-11-13T09:44:08.063Z,15.70
2018-11-13T09:45:43.085Z,15.70
2018-11-13T09:47:17.960Z,15.70
2018-11-13T09:48:52.999Z,15.70
2018-11-13T09:50:28.049Z,15.70
2018-11-13T09:52:02.956Z,15.70
2018-11-13T09:53:37.902Z,15.70
2018-11-13T09:55:14.137Z,15.70
2018-11-13T09:56:49.055Z,15.70
2018-11-13T09:58:24.023Z,15.70
2018-11-13T09:59:59.000Z,15.70
2018-11-13T10:01:34.561Z,15.90
2018-11-13T10:03:09.858Z,16.00
2018-11-13T10:04:44.703Z,16.00
2018-11-13T10:06:18.952Z,15.90
2018-11-13T10:07:54.561Z,15.90
2018-11-13T10:09:29.541Z,15.80
2018-11-13T10:11:04.720Z,15.80
2018-11-13T10:12:39.621Z,15.80
2018-11-13T10:14:14.611Z,15.90
2018-11-13T10:15:49.556Z,15.80
2018-11-13T10:17:24.526Z,15.80
2018-11-13T10:18:59.449Z,15.70
2018-11-13T10:20:34.355Z,15.70
2018-11-13T10:22:09.335Z,15.80
2018-11-13T10:23:44.213Z,15.80
2018-11-13T10:25:19.443Z,15.80
2018-11-13T10:26:54.307Z,15.60
2018-11-13T10:28:29.414Z,15.50
2018-11-13T10:30:05.694Z,15.40
2018-11-13T10:31:40.587Z,15.40
2018-11-13T10:33:15.519Z,15.30
2018-11-13T10:34:50.398Z,15.10
2018-11-13T10:36:25.287Z,15.00
2018-11-13T10:38:00.225Z,14.80
2018-11-13T10:39:35.195Z,14.50
2018-11-13T10:41:16.437Z,14.40
2018-11-13T10:42:51.795Z,14.20
2018-11-13T10:44:26.679Z,14.10
2018-11-13T10:46:01.636Z,13.90
2018-11-13T10:47:36.618Z,13.80
2018-11-13T10:49:11.679Z,13.80
2018-11-13T10:50:46.557Z,13.80
2018-11-13T10:52:21.419Z,13.80
2018-11-13T10:53:56.383Z,13.90
2018-11-13T10:55:31.305Z,13.90
2018-11-13T10:57:06.264Z,14.00
2018-11-13T10:58:41.128Z,14.10
2018-11-13T11:00:21.879Z,14.00
2018-11-13T11:02:01.040Z,14.00
2018-11-13T11:03:47.201Z,14.10
2018-11-13T11:05:24.222Z,14.20
2018-11-13T11:06:59.118Z,14.20
2018-11-13T11:08:34.050Z,14.10
2018-11-13T11:10:09.111Z,14.00
2018-11-13T11:11:43.980Z,14.00
2018-11-13T11:13:19.124Z,13.90
2018-11-13T11:14:53.943Z,13.80
2018-11-13T11:16:28.869Z,13.70
2018-11-13T11:18:03.856Z,13.60
2018-11-13T11:19:38.942Z,13.60
2018-11-13T11:21:13.990Z,13.60
2018-11-13T11:22:48.987Z,13.50
2018-11-13T11:24:23.735Z,13.50
2018-11-13T11:25:58.635Z,13.40
2018-11-13T11:27:33.530Z,13.40
2018-11-13T11:29:08.543Z,13.40
2018-11-13T11:30:43.417Z,13.30
2018-11-13T11:32:18.434Z,13.20
2018-11-13T11:33:53.334Z,13.10
2018-11-13T11:35:28.224Z,13.10
2018-11-13T11:37:03.135Z,13.00
2018-11-13T11:38:38.162Z,13.00
2018-11-13T11:40:13.312Z,12.90
2018-11-13T11:41:48.307Z,12.90
2018-11-13T11:43:23.183Z,12.90
2018-11-13T11:44:58.096Z,12.90
2018-11-13T11:46:33.075Z,12.80
2018-11-13T11:48:07.983Z,12.70
2018-11-13T11:49:42.899Z,12.70
2018-11-13T11:51:17.825Z,12.70
2018-11-13T11:52:52.703Z,12.60
2018-11-13T11:54:27.595Z,12.60
2018-11-13T11:56:02.569Z,12.60
2018-11-13T11:57:37.493Z,12.60
2018-11-13T11:59:12.616Z,12.70
2018-11-13T12:00:47.631Z,12.70
2018-11-13T12:02:22.568Z,12.70
2018-11-13T12:03:57.392Z,12.70
2018-11-13T12:05:32.296Z,12.70
2018-11-13T12:07:07.346Z,12.70
2018-11-13T12:08:42.249Z,12.70
2018-11-13T12:10:17.261Z,12.60
2018-11-13T12:11:52.215Z,12.60
2018-11-13T12:13:27.180Z,12.60
2018-11-13T12:15:02.173Z,12.60
2018-11-13T12:16:37.706Z,12.60
2018-11-13T12:18:12.678Z,12.60
2018-11-13T12:19:47.546Z,12.60
2018-11-13T12:21:22.509Z,12.60
2018-11-13T12:22:57.480Z,12.70
2018-11-13T12:24:32.296Z,12.70
2018-11-13T12:26:07.170Z,12.70
2018-11-13T12:27:42.365Z,12.80
2018-11-13T12:29:17.246Z,12.80
2018-11-13T12:30:52.248Z,12.80
2018-11-13T12:32:27.549Z,12.90
2018-11-13T12:34:02.659Z,12.90
2018-11-13T12:35:37.575Z,12.80
2018-11-13T12:37:12.544Z,12.90
2018-11-13T12:38:47.595Z,12.90
2018-11-13T12:40:23.734Z,12.80
2018-11-13T12:41:58.640Z,12.80
2018-11-13T12:43:33.528Z,12.80
2018-11-13T12:45:09.135Z,12.80
2018-11-13T12:46:44.057Z,12.80
2018-11-13T12:48:19.055Z,12.80
2018-11-13T12:49:54.001Z,12.80
2018-11-13T12:51:34.290Z,12.70
2018-11-13T12:53:09.201Z,12.70
2018-11-13T12:54:44.610Z,12.60
2018-11-13T12:56:19.629Z,12.60
2018-11-13T12:57:54.479Z,12.60
2018-11-13T12:59:29.327Z,12.60
2018-11-13T13:02:51.402Z,12.60
2018-11-13T13:04:26.328Z,12.50
2018-11-13T13:06:01.272Z,12.50
2018-11-13T13:07:36.164Z,12.50
2018-11-13T13:09:11.343Z,12.50
2018-11-13T13:10:46.271Z,12.50
2018-11-13T13:12:21.214Z,12.50
2018-11-13T13:14:01.433Z,12.50
2018-11-13T13:15:36.294Z,12.40
2018-11-13T13:17:11.303Z,12.40
2018-11-13T13:18:46.213Z,12.40
2018-11-13T13:20:23.484Z,12.40
2018-11-13T13:21:58.489Z,12.40
2018-11-13T13:23:33.418Z,12.40
2018-11-13T13:25:10.751Z,12.40
2018-11-13T13:26:45.671Z,12.30
2018-11-13T13:28:20.597Z,12.30
2018-11-13T13:29:55.630Z,12.30
2018-11-13T13:31:30.750Z,12.40
2018-11-13T13:33:06.132Z,12.40
2018-11-13T13:34:41.231Z,12.40
2018-11-13T13:36:16.095Z,12.40
2018-11-13T13:37:51.030Z,12.40
2018-11-13T13:39:26.090Z,12.40
2018-11-13T13:41:07.364Z,12.30
2018-11-13T13:42:42.263Z,12.30
2018-11-13T13:44:17.411Z,12.30
2018-11-13T13:45:52.422Z,12.30
2018-11-13T13:47:27.423Z,12.30
2018-11-13T13:49:02.429Z,12.20
2018-11-13T13:50:37.840Z,12.20
2018-11-13T13:52:12.715Z,12.20
2018-11-13T13:53:47.718Z,12.20
2018-11-13T13:55:22.827Z,12.10
2018-11-13T13:56:57.844Z,12.10
2018-11-13T13:58:32.872Z,12.10
2018-11-13T14:00:09.820Z,12.10
2018-11-13T14:01:44.599Z,12.10
2018-11-13T14:03:19.539Z,12.00
2018-11-13T14:04:54.409Z,12.10
2018-11-13T14:06:29.316Z,12.00
2018-11-13T14:08:04.276Z,12.00
2018-11-13T14:09:39.236Z,12.00
2018-11-13T14:11:14.180Z,12.00
2018-11-13T14:12:49.074Z,12.00
2018-11-13T14:14:23.943Z,12.00
2018-11-13T14:15:58.829Z,12.00
2018-11-13T14:17:33.772Z,12.00
2018-11-13T14:19:08.730Z,12.00
2018-11-13T14:20:43.680Z,11.90
2018-11-13T14:22:18.580Z,11.90
2018-11-13T14:23:53.580Z,11.90
2018-11-13T14:25:28.440Z,11.90
2018-11-13T14:27:03.575Z,11.90
2018-11-13T14:28:38.501Z,11.90
2018-11-13T14:30:15.544Z,11.80
2018-11-13T14:31:50.499Z,11.80
2018-11-13T14:33:25.409Z,11.80
2018-11-13T14:35:00.325Z,11.80
2018-11-13T14:36:35.182Z,11.80
2018-11-13T14:38:10.038Z,11.80
2018-11-13T14:39:44.927Z,11.80
2018-11-13T14:41:19.789Z,11.80
2018-11-13T14:42:54.767Z,11.70
2018-11-13T14:44:29.675Z,11.70
2018-11-13T14:46:04.544Z,11.70
2018-11-13T14:47:39.916Z,11.70
2018-11-13T14:49:15.002Z,11.70
2018-11-13T14:50:49.958Z,11.70
2018-11-13T14:52:24.863Z,11.70
2018-11-13T14:53:59.893Z,11.60
2018-11-13T14:55:36.071Z,11.60
2018-11-13T14:57:10.954Z,11.60
2018-11-13T14:58:45.847Z,11.60
2018-11-13T15:00:23.560Z,11.50
2018-11-13T15:01:58.541Z,11.50
2018-11-13T15:03:33.456Z,11.50
2018-11-13T15:05:10.300Z,11.50
2018-11-13T15:06:45.191Z,11.40
2018-11-13T15:08:20.091Z,11.40
2018-11-13T15:09:55.064Z,11.40
2018-11-13T15:11:30.054Z,11.40
2018-11-13T15:13:05.434Z,11.40
2018-11-13T15:14:40.362Z,11.30
2018-11-13T15:16:15.276Z,11.30
2018-11-13T15:17:50.145Z,11.30
2018-11-13T15:19:25.122Z,11.30
2018-11-13T15:20:59.991Z,11.30
2018-11-13T15:22:34.942Z,11.30
2018-11-13T15:24:09.905Z,11.30
2018-11-13T15:25:44.839Z,11.30
2018-11-13T15:27:19.722Z,11.30
2018-11-13T15:28:54.647Z,11.30
2018-11-13T15:30:31.302Z,11.30
2018-11-13T15:32:06.223Z,11.30
2018-11-13T15:33:41.190Z,11.30
2018-11-13T15:35:16.190Z,11.30
2018-11-13T15:36:51.283Z,11.20
2018-11-13T15:38:26.216Z,11.20
2018-11-13T15:40:01.122Z,11.20
2018-11-13T15:41:36.003Z,11.20
2018-11-13T15:43:10.893Z,11.20
2018-11-13T15:44:45.879Z,11.20
2018-11-13T15:46:20.723Z,11.20
2018-11-13T15:47:56.727Z,11.20
2018-11-13T15:49:31.658Z,11.20
2018-11-13T15:51:06.596Z,11.20
2018-11-13T15:52:41.535Z,11.20
2018-11-13T15:54:16.424Z,11.20
2018-11-13T15:55:51.453Z,11.10
2018-11-13T15:57:26.427Z,11.10
2018-11-13T15:59:01.456Z,11.10
2018-11-13T16:00:37.549Z,11.10
2018-11-13T16:02:12.418Z,11.10
2018-11-13T16:03:47.340Z,11.10
2018-11-13T16:05:40.721Z,11.10
2018-11-13T16:07:15.592Z,11.10
2018-11-13T16:08:50.551Z,11.10
2018-11-13T16:10:25.661Z,11.00
2018-11-13T16:12:00.539Z,11.00
2018-11-13T16:13:35.521Z,11.00
2018-11-13T16:15:10.605Z,11.00
2018-11-13T16:16:45.407Z,10.90
2018-11-13T16:18:22.233Z,10.90
2018-11-13T16:19:57.032Z,10.90
2018-11-13T16:21:31.901Z,10.80
2018-11-13T16:23:07.104Z,10.80
2018-11-13T16:24:42.054Z,10.80
2018-11-13T16:26:17.073Z,10.80
2018-11-13T16:27:51.993Z,10.80
2018-11-13T16:29:26.918Z,10.80
2018-11-13T16:31:02.056Z,10.80
2018-11-13T16:32:36.936Z,10.70
2018-11-13T16:34:11.854Z,10.80
2018-11-13T16:35:46.852Z,10.80
2018-11-13T16:37:21.729Z,10.70
2018-11-13T16:38:56.641Z,10.80
2018-11-13T16:40:32.230Z,10.70
2018-11-13T16:42:07.403Z,10.70
2018-11-13T16:43:42.236Z,10.70
2018-11-13T16:45:18.453Z,10.70
2018-11-13T16:46:53.334Z,10.70
2018-11-13T16:48:28.275Z,10.70
2018-11-13T16:50:03.385Z,10.70
2018-11-13T16:51:38.347Z,10.70
2018-11-13T16:53:13.281Z,10.70
2018-11-13T16:54:51.266Z,10.70
2018-11-13T16:56:26.268Z,10.70
2018-11-13T16:58:02.408Z,10.70
2018-11-13T16:59:37.337Z,10.70
2018-11-13T17:01:12.641Z,10.70
2018-11-13T17:02:47.701Z,10.70
2018-11-13T17:04:22.611Z,10.70
2018-11-13T17:05:57.772Z,10.70
2018-11-13T17:07:32.763Z,10.70
2018-11-13T17:09:09.571Z,10.70
2018-11-13T17:10:44.594Z,10.80
2018-11-13T17:12:19.689Z,10.80
2018-11-13T17:13:54.662Z,10.80
2018-11-13T17:15:30.822Z,10.80
2018-11-13T17:17:05.825Z,10.80
2018-11-13T17:18:40.748Z,10.80
2018-11-13T17:20:16.012Z,10.80
2018-11-13T17:21:50.901Z,10.90
2018-11-13T17:23:25.855Z,10.80
2018-11-13T17:25:00.785Z,10.90
2018-11-13T17:26:35.773Z,10.90
2018-11-13T17:28:10.739Z,10.90
2018-11-13T17:29:45.665Z,10.90
2018-11-13T17:31:20.647Z,10.90
2018-11-13T17:32:56.422Z,10.90
2018-11-13T17:34:31.459Z,10.90
2018-11-13T17:36:06.655Z,10.90
2018-11-13T17:37:41.995Z,10.90
2018-11-13T17:39:16.875Z,10.80
2018-11-13T17:40:51.792Z,10.80
2018-11-13T17:42:26.672Z,10.80
2018-11-13T17:44:01.628Z,10.70
2018-11-13T17:45:37.922Z,10.70
2018-11-13T17:47:12.857Z,10.60
2018-11-13T17:48:47.760Z,10.60
2018-11-13T17:50:30.882Z,10.60
2018-11-13T17:52:06.161Z,10.60
2018-11-13T17:53:41.291Z,10.60
2018-11-13T17:55:17.015Z,10.50
2018-11-13T17:56:51.857Z,10.60
2018-11-13T17:58:26.775Z,10.60
2018-11-13T18:00:01.786Z,10.60
2018-11-13T18:01:36.718Z,10.50
2018-11-13T18:03:12.754Z,10.50
2018-11-13T18:04:48.837Z,10.50
2018-11-13T18:06:23.887Z,10.40
2018-11-13T18:07:59.871Z,10.40
2018-11-13T18:09:34.756Z,10.40
2018-11-13T18:11:09.756Z,10.40
2018-11-13T18:12:44.682Z,10.30
2018-11-13T18:14:19.722Z,10.30
2018-11-13T18:15:54.579Z,10.20
2018-11-13T18:17:29.602Z,10.10
2018-11-13T18:19:04.535Z,10.00
2018-11-13T18:20:40.398Z,10.00
2018-11-13T18:22:15.588Z,9.90
2018-11-13T18:23:50.488Z,9.90
2018-11-13T18:25:25.526Z,9.80
2018-11-13T18:27:00.490Z,9.80
2018-11-13T18:28:35.406Z,9.80
2018-11-13T18:30:15.609Z,9.80
2018-11-13T18:31:50.674Z,9.70
2018-11-13T18:33:25.527Z,9.60
2018-11-13T18:35:00.433Z,9.50
2018-11-13T18:36:35.307Z,9.50
2018-11-13T18:38:12.655Z,9.50
2018-11-13T18:39:47.677Z,9.40
2018-11-13T18:41:22.694Z,9.40
2018-11-13T18:42:58.837Z,9.30
2018-11-13T18:44:33.886Z,9.30
2018-11-13T18:46:08.670Z,9.20
2018-11-13T18:47:43.626Z,9.20
2018-11-13T18:49:18.511Z,9.10
2018-11-13T18:50:53.460Z,9.10
2018-11-13T18:52:28.411Z,9.00
2018-11-13T18:54:03.341Z,9.10
2018-11-13T18:55:38.402Z,9.00
2018-11-13T18:57:13.581Z,9.00
2018-11-13T18:58:48.547Z,9.00
2018-11-13T19:00:24.820Z,9.00
2018-11-13T19:01:59.799Z,9.00
2018-11-13T19:03:34.695Z,8.90
2018-11-13T19:05:10.289Z,8.90
2018-11-13T19:06:45.108Z,8.80
2018-11-13T19:08:20.007Z,8.80
2018-11-13T19:09:54.957Z,8.80
2018-11-13T19:11:30.089Z,8.90
2018-11-13T19:13:07.099Z,8.90
2018-11-13T19:14:42.024Z,8.90
2018-11-13T19:16:19.846Z,8.80
2018-11-13T19:17:55.000Z,8.80
2018-11-13T19:19:29.955Z,8.80
2018-11-13T19:21:05.722Z,8.70
2018-11-13T19:22:40.791Z,8.70
2018-11-13T19:24:15.709Z,8.60
2018-11-13T19:25:50.721Z,8.60
2018-11-13T19:27:25.686Z,8.60
2018-11-13T19:29:00.615Z,8.50
2018-11-13T19:30:35.549Z,8.50
2018-11-13T19:32:10.543Z,8.50
2018-11-13T19:33:45.443Z,8.50
2018-11-13T19:35:20.667Z,8.40
2018-11-13T19:36:55.717Z,8.40
2018-11-13T19:38:30.595Z,8.30
2018-11-13T19:40:08.341Z,8.30
2018-11-13T19:41:43.196Z,8.30
2018-11-13T19:43:18.198Z,8.20
2018-11-13T19:44:53.515Z,8.20
2018-11-13T19:46:28.535Z,8.20
2018-11-13T19:48:03.391Z,8.20
2018-11-13T19:49:38.501Z,8.20
2018-11-13T19:51:13.295Z,8.20
2018-11-13T19:52:49.223Z,8.20
2018-11-13T19:54:24.914Z,8.20
2018-11-13T19:55:59.840Z,8.20
2018-11-13T19:57:34.733Z,8.10
2018-11-13T19:59:10.315Z,8.20
2018-11-13T20:00:45.368Z,8.10
2018-11-13T20:02:20.547Z,8.10
2018-11-13T20:03:55.608Z,8.00
2018-11-13T20:05:31.530Z,8.00
2018-11-13T20:07:06.518Z,8.00
2018-11-13T20:08:41.497Z,8.00
2018-11-13T20:10:21.333Z,8.00
2018-11-13T20:11:56.242Z,7.90
2018-11-13T20:13:31.214Z,7.90
2018-11-13T20:15:06.786Z,7.90
2018-11-13T20:16:41.845Z,7.90
2018-11-13T20:18:16.757Z,7.90
2018-11-13T20:19:51.633Z,7.90
2018-11-13T20:21:26.756Z,7.90
2018-11-13T20:23:02.991Z,7.90
2018-11-13T20:24:37.984Z,7.90
2018-11-13T20:26:12.846Z,7.90
2018-11-13T20:27:47.903Z,7.80
2018-11-13T20:29:22.909Z,7.80
2018-11-13T20:30:57.873Z,7.70
2018-11-13T20:32:32.711Z,7.70
2018-11-13T20:34:08.327Z,7.70
2018-11-13T20:35:43.234Z,7.70
2018-11-13T20:37:18.252Z,7.70
2018-11-13T20:38:53.242Z,7.70
2018-11-13T20:40:31.353Z,7.70
2018-11-13T20:42:06.570Z,7.70
2018-11-13T20:43:41.630Z,7.70
2018-11-13T20:45:16.643Z,7.70
2018-11-13T20:46:51.617Z,7.70
2018-11-13T20:48:26.651Z,7.60